Time;durP1;ratioP1;P1;durP2;ratioP2;P2;SDS_P1;SDS_P2;PMS_P1;PMS_P2;Temp;Humidity;BMP_temperature;BMP_pressure;BME280_temperature;BME280_humidity;BME280_pressure;Samples;Min_cycle;Max_cycle;Signal;HPM_P1;HPM_P2
2021/11/24 00:01:33;;;;;;;8.60;5.93;;;;;;;25.50;18.76;99037.63;5025855;28;20033;-81
2021/11/24 00:03:59;;;;;;;11.07;5.93;;;;;;;25.92;18.62;99034.25;5018252;28;20066;-81
2021/11/24 00:06:25;;;;;;;10.15;6.55;;;;;;;25.49;18.58;99044.47;5029444;28;20037;-81
2021/11/24 00:08:51;;;;;;;12.88;7.15;;;;;;;24.86;19.44;99040.31;5023987;28;20048;-80
2021/11/24 00:11:17;;;;;;;9.60;6.15;;;;;;;25.17;19.18;99031.56;5022418;28;20030;-80
2021/11/24 00:13:43;;;;;;;10.48;6.93;;;;;;;25.58;18.89;99039.16;5012918;28;20059;-81
2021/11/24 00:16:10;;;;;;;11.25;6.70;;;;;;;25.68;18.43;99041.81;5017233;28;20053;-80
2021/11/24 00:18:36;;;;;;;10.43;6.30;;;;;;;25.84;18.24;99033.53;5020889;28;20432;-80
2021/11/24 00:21:02;;;;;;;9.40;5.93;;;;;;;25.96;18.18;99035.78;5023102;28;20053;-81
2021/11/24 00:23:28;;;;;;;10.55;5.82;;;;;;;25.72;18.54;99034.13;5017939;28;20401;-81
2021/11/24 00:25:54;;;;;;;11.60;6.07;;;;;;;25.92;18.62;99037.06;5021336;28;20510;-81
2021/11/24 00:28:21;;;;;;;9.20;5.32;;;;;;;25.97;18.47;99030.97;5018645;28;20034;-80
2021/11/24 00:30:48;;;;;;;8.23;5.30;;;;;;;26.23;18.05;99038.66;5014685;28;20509;-81
2021/11/24 00:33:14;;;;;;;8.38;5.15;;;;;;;26.26;18.12;99032.16;5015853;28;20141;-81
2021/11/24 00:35:40;;;;;;;7.78;5.38;;;;;;;25.95;18.45;99037.00;5012738;28;20026;-81
2021/11/24 00:38:07;;;;;;;7.55;5.22;;;;;;;25.93;18.14;99035.81;5015074;28;20116;-81
2021/11/24 00:40:33;;;;;;;9.55;5.47;;;;;;;25.45;18.86;99035.28;5020037;28;20025;-81
2021/11/24 00:42:59;;;;;;;9.43;5.03;;;;;;;25.19;19.04;99031.94;5027620;28;20033;-81
2021/11/24 00:45:25;;;;;;;11.15;5.18;;;;;;;25.49;18.87;99036.03;5032442;28;20091;-81
2021/11/24 00:47:51;;;;;;;7.85;5.43;;;;;;;25.01;19.48;99042.59;5025990;28;20076;-81
2021/11/24 00:50:17;;;;;;;9.05;5.75;;;;;;;25.11;19.39;99032.44;5028734;28;20034;-81
2021/11/24 00:52:45;;;;;;;7.53;4.95;;;;;;;24.78;19.87;99039.63;5024156;28;20025;-80
2021/11/24 00:55:12;;;;;;;10.90;6.95;;;;;;;24.77;19.69;99035.19;5028572;28;20061;-81
2021/11/24 00:57:38;;;;;;;10.90;6.28;;;;;;;24.01;20.53;99036.13;5027924;28;20035;-81
2021/11/24 01:00:05;;;;;;;10.90;5.35;;;;;;;24.89;19.56;99037.50;5032623;28;20067;-80
2021/11/24 01:02:32;;;;;;;7.80;5.03;;;;;;;24.78;19.82;99038.81;5041016;28;20034;-80
2021/11/24 01:04:58;;;;;;;10.27;6.43;;;;;;;24.99;19.44;99038.59;5028985;28;20034;-80
2021/11/24 01:07:24;;;;;;;8.82;5.93;;;;;;;24.95;19.63;99040.66;5028955;28;20040;-81
2021/11/24 01:09:51;;;;;;;8.15;5.40;;;;;;;24.82;19.75;99037.56;5028638;28;20038;-81
2021/11/24 01:12:21;;;;;;;8.05;4.82;;;;;;;24.88;19.76;99035.88;5035349;28;20091;-81
2021/11/24 01:14:47;;;;;;;9.88;5.32;;;;;;;25.29;19.19;99038.66;5036117;28;20033;-80
2021/11/24 01:17:14;;;;;;;7.70;4.82;;;;;;;25.78;18.52;99035.25;5035464;28;20034;-81
2021/11/24 01:19:40;;;;;;;10.07;5.95;;;;;;;26.02;18.34;99038.94;5034263;28;20041;-81
2021/11/24 01:22:07;;;;;;;8.20;5.13;;;;;;;26.02;18.42;99038.94;5028807;28;20042;-81
2021/11/24 01:24:33;;;;;;;6.07;4.32;;;;;;;26.12;18.47;99035.19;5017069;28;20045;-81
2021/11/24 01:26:59;;;;;;;8.93;5.57;;;;;;;25.94;18.32;99037.44;5028711;28;20026;-81
2021/11/24 01:29:25;;;;;;;6.40;4.00;;;;;;;25.64;18.58;99034.63;5019935;28;20311;-81
2021/11/24 01:31:52;;;;;;;8.88;5.75;;;;;;;25.24;19.12;99033.50;5027373;28;20310;-81
2021/11/24 01:34:18;;;;;;;8.07;5.20;;;;;;;25.33;19.31;99031.78;5030213;28;20033;-81
2021/11/24 01:36:44;;;;;;;6.53;4.75;;;;;;;25.47;19.16;99030.84;5034299;28;20515;-81
2021/11/24 01:39:10;;;;;;;9.55;5.72;;;;;;;23.73;20.95;99038.31;5035083;28;20087;-81
2021/11/24 01:41:37;;;;;;;6.28;4.43;;;;;;;22.95;21.88;99032.19;5029947;28;20060;-81
2021/11/24 01:44:03;;;;;;;6.78;4.90;;;;;;;23.75;21.14;99019.88;5033673;28;20030;-80
2021/11/24 01:46:30;;;;;;;9.02;5.57;;;;;;;24.44;20.51;99024.63;5027362;28;20506;-80
2021/11/24 01:48:57;;;;;;;7.47;5.45;;;;;;;24.50;20.47;99029.41;5034871;28;20045;-81
2021/11/24 01:51:23;;;;;;;8.85;5.32;;;;;;;25.03;19.99;99037.34;5032531;28;20500;-81
2021/11/24 01:53:50;;;;;;;7.72;4.95;;;;;;;25.46;19.31;99031.25;5032522;28;20037;-81
2021/11/24 01:56:16;;;;;;;10.82;6.10;;;;;;;25.22;19.77;99031.13;5028534;28;20027;-81
2021/11/24 01:58:44;;;;;;;9.15;6.28;;;;;;;24.94;20.04;99034.22;5033047;28;20033;-81
2021/11/24 02:01:10;;;;;;;7.38;4.80;;;;;;;24.59;20.24;99028.91;5033425;28;20098;-81
2021/11/24 02:03:36;;;;;;;6.88;4.10;;;;;;;24.76;20.00;99035.59;5034110;28;20033;-81
2021/11/24 02:06:03;;;;;;;6.57;4.85;;;;;;;24.74;20.04;99017.13;5031347;28;20505;-81
2021/11/24 02:08:29;;;;;;;4.97;4.07;;;;;;;24.88;19.87;99027.44;5030941;28;20033;-81
2021/11/24 02:10:58;;;;;;;4.90;3.85;;;;;;;24.90;19.68;99025.00;5032567;28;20032;-81
2021/11/24 02:13:24;;;;;;;8.82;3.72;;;;;;;25.23;19.37;99027.06;5031713;28;20029;-81
2021/11/24 02:15:50;;;;;;;5.00;3.55;;;;;;;25.04;19.65;99024.09;5028768;28;20044;-81
2021/11/24 02:18:16;;;;;;;5.78;3.83;;;;;;;25.08;19.44;99022.84;5030986;28;20116;-81
2021/11/24 02:20:44;;;;;;;6.20;4.13;;;;;;;25.48;19.24;99017.56;5024863;28;20048;-81
2021/11/24 02:23:12;;;;;;;8.13;4.78;;;;;;;25.69;19.07;99025.72;5031894;28;20029;-81
2021/11/24 02:25:39;;;;;;;6.40;3.72;;;;;;;25.56;19.09;99017.06;5034589;28;20034;-81
2021/11/24 02:28:06;;;;;;;5.03;3.55;;;;;;;25.79;18.86;99019.19;5031897;28;20029;-81
2021/11/24 02:30:33;;;;;;;5.03;3.92;;;;;;;25.86;18.86;99028.28;5030757;28;20397;-81
2021/11/24 02:33:00;;;;;;;8.77;4.40;;;;;;;25.47;19.20;99022.41;5031763;28;20025;-81
2021/11/24 02:35:26;;;;;;;5.97;3.72;;;;;;;25.39;19.29;99021.66;5032531;28;20113;-81
2021/11/24 02:37:53;;;;;;;6.60;3.17;;;;;;;25.55;19.22;99018.28;5029046;28;20107;-81
2021/11/24 02:40:19;;;;;;;6.20;4.28;;;;;;;25.48;19.19;99009.13;5028148;28;20143;-81
2021/11/24 02:42:45;;;;;;;6.85;4.22;;;;;;;25.33;19.39;99006.47;5031218;28;20080;-81
2021/11/24 02:45:12;;;;;;;4.55;3.70;;;;;;;25.61;18.98;99004.53;5030851;28;20120;-81
2021/11/24 02:47:39;;;;;;;5.97;3.83;;;;;;;25.99;18.60;99006.81;5033671;28;20382;-81
2021/11/24 02:50:06;;;;;;;5.43;4.15;;;;;;;26.39;18.42;99004.19;5022513;28;20045;-81
2021/11/24 02:52:32;;;;;;;6.72;4.10;;;;;;;26.68;17.99;99003.28;5033029;28;20029;-81
2021/11/24 02:55:05;;;;;;;7.40;3.88;;;;;;;26.84;17.98;99004.66;5030198;28;20032;-81
2021/11/24 02:57:34;;;;;;;6.80;4.40;;;;;;;26.97;17.51;99000.75;5030405;28;20099;-81
2021/11/24 03:00:00;;;;;;;6.40;4.10;;;;;;;26.89;17.94;99004.13;5033949;28;20030;-81
2021/11/24 03:02:27;;;;;;;6.95;4.45;;;;;;;26.56;18.17;99009.50;5033583;28;20121;-81
2021/11/24 03:04:54;;;;;;;7.32;3.83;;;;;;;26.62;18.18;99012.66;5034714;28;20056;-81
2021/11/24 03:07:21;;;;;;;5.93;4.10;;;;;;;26.73;17.80;99019.69;5033878;28;20027;-81
2021/11/24 03:09:49;;;;;;;6.20;3.83;;;;;;;26.90;17.90;99014.19;5029542;28;20033;-81
2021/11/24 03:12:15;;;;;;;6.43;4.25;;;;;;;26.90;17.93;99012.16;5027414;28;20041;-81
2021/11/24 03:14:41;;;;;;;8.27;4.68;;;;;;;26.74;17.86;99004.38;5029749;28;20041;-81
2021/11/24 03:17:07;;;;;;;4.78;3.60;;;;;;;26.70;18.18;99014.09;5028966;28;20029;-81
2021/11/24 03:19:33;;;;;;;6.75;4.47;;;;;;;26.71;18.14;99007.25;5023061;28;20033;-81
2021/11/24 03:22:00;;;;;;;6.55;5.20;;;;;;;26.53;18.06;99013.22;5017518;28;20510;-81
2021/11/24 03:24:26;;;;;;;7.72;3.83;;;;;;;26.42;18.30;99004.13;5026332;28;20453;-81
2021/11/24 03:26:52;;;;;;;8.10;5.20;;;;;;;26.53;18.33;99007.56;5027398;28;20033;-81
2021/11/24 03:29:19;;;;;;;6.97;3.95;;;;;;;26.43;18.26;99016.19;5026463;28;20042;-81
2021/11/24 03:31:45;;;;;;;7.65;4.57;;;;;;;26.22;18.61;99010.91;5028303;28;20112;-81
2021/11/24 03:34:11;;;;;;;6.95;3.60;;;;;;;26.23;18.43;99012.50;5022896;28;20092;-81
2021/11/24 03:36:38;;;;;;;5.35;3.75;;;;;;;26.47;18.43;99014.91;5029785;28;20026;-81
2021/11/24 03:39:06;;;;;;;4.85;3.65;;;;;;;26.00;18.64;99005.56;5025368;28;20145;-81
2021/11/24 03:41:32;;;;;;;5.95;4.10;;;;;;;26.13;18.62;99011.44;5024073;28;20038;-81
2021/11/24 03:43:58;;;;;;;5.30;4.13;;;;;;;26.33;18.36;99005.88;5019337;28;20125;-81
2021/11/24 03:46:25;;;;;;;4.00;3.45;;;;;;;26.49;18.33;99011.69;5027019;28;20049;-81
2021/11/24 03:48:51;;;;;;;6.22;4.20;;;;;;;26.65;18.02;99006.94;5030013;28;20573;-81
2021/11/24 03:51:17;;;;;;;7.35;4.22;;;;;;;26.55;18.26;98993.84;5025810;28;20030;-81
2021/11/24 03:53:44;;;;;;;5.32;3.47;;;;;;;26.56;18.14;98995.44;5028725;28;20132;-82
2021/11/24 03:56:11;;;;;;;4.72;3.60;;;;;;;26.63;17.88;98989.66;5029460;28;20482;-81
2021/11/24 03:58:38;;;;;;;3.45;2.88;;;;;;;26.39;18.25;98990.91;5026605;28;20512;-81
2021/11/24 04:01:05;;;;;;;5.47;3.30;;;;;;;26.19;18.21;98989.22;5029227;28;20682;-81
2021/11/24 04:03:32;;;;;;;5.28;3.75;;;;;;;25.99;18.61;98994.75;5031457;28;20037;-81
2021/11/24 04:05:58;;;;;;;4.70;3.38;;;;;;;26.15;18.50;98994.94;5033455;28;20172;-81
2021/11/24 04:08:25;;;;;;;5.57;2.95;;;;;;;26.03;18.45;98989.84;5033271;28;20036;-81
2021/11/24 04:10:51;;;;;;;4.57;2.95;;;;;;;26.16;18.55;98992.91;5033027;28;20040;-81
2021/11/24 04:13:17;;;;;;;5.10;3.40;;;;;;;26.12;18.60;98994.97;5030633;28;20141;-81
2021/11/24 04:15:43;;;;;;;5.80;3.33;;;;;;;26.24;18.45;98974.66;5022761;28;20042;-81
2021/11/24 04:18:09;;;;;;;4.70;2.58;;;;;;;26.26;18.33;98978.66;5037898;28;20030;-81
2021/11/24 04:20:36;;;;;;;5.40;2.50;;;;;;;26.37;18.03;98972.84;5019687;28;20034;-81
2021/11/24 04:23:02;;;;;;;3.25;2.25;;;;;;;26.46;18.09;98976.72;5030105;28;20034;-81
2021/11/24 04:25:28;;;;;;;3.70;2.63;;;;;;;25.75;18.48;98968.56;5037287;28;20035;-81
2021/11/24 04:27:56;;;;;;;2.63;2.03;;;;;;;25.75;18.58;98976.22;5038791;28;20022;-81
2021/11/24 04:30:23;;;;;;;4.20;2.55;;;;;;;25.81;18.67;98969.69;5032813;28;20033;-81
2021/11/24 04:32:51;;;;;;;1.92;1.70;;;;;;;25.93;18.47;98971.91;5032380;28;20038;-81
2021/11/24 04:35:18;;;;;;;3.13;2.20;;;;;;;26.20;18.14;98971.13;5031463;28;20052;-81
2021/11/24 04:37:44;;;;;;;3.75;2.42;;;;;;;26.38;17.78;98972.41;5032983;28;20034;-81
2021/11/24 04:40:11;;;;;;;3.75;2.67;;;;;;;26.50;17.69;98963.38;5033052;28;20052;-81
2021/11/24 04:42:39;;;;;;;3.80;2.45;;;;;;;26.63;17.47;98961.50;5021269;28;20045;-81
2021/11/24 04:45:05;;;;;;;2.58;1.92;;;;;;;26.72;17.49;98963.78;5032906;28;20037;-81
2021/11/24 04:47:32;;;;;;;4.63;2.00;;;;;;;26.60;17.38;98962.38;5033390;28;20112;-81
2021/11/24 04:49:58;;;;;;;3.50;1.90;;;;;;;26.50;17.57;98962.56;5032936;28;20041;-81
2021/11/24 04:52:24;;;;;;;4.82;2.40;;;;;;;26.53;17.52;98965.31;5013582;28;20026;-81
2021/11/24 04:54:50;;;;;;;2.78;1.95;;;;;;;26.37;17.78;98967.22;5022350;28;20045;-81
2021/11/24 04:57:16;;;;;;;3.50;2.10;;;;;;;26.33;17.55;98964.47;5031839;28;20036;-81
2021/11/24 04:59:44;;;;;;;3.15;2.28;;;;;;;26.20;17.82;98968.31;5029105;28;20374;-81
2021/11/24 05:02:10;;;;;;;3.30;2.15;;;;;;;26.13;17.94;98965.63;5024365;28;20082;-81
2021/11/24 05:04:37;;;;;;;2.90;2.15;;;;;;;26.02;17.86;98960.91;5036451;28;20034;-81
2021/11/24 05:07:03;;;;;;;3.47;2.47;;;;;;;25.61;18.51;98963.16;5023751;28;20055;-81
2021/11/24 05:09:29;;;;;;;3.80;2.30;;;;;;;25.34;18.67;98960.25;5025885;28;20056;-81
2021/11/24 05:11:55;;;;;;;3.78;2.67;;;;;;;25.38;18.39;98955.41;5021991;28;20034;-81
2021/11/24 05:14:29;;;;;;;3.38;2.47;;;;;;;25.36;18.56;98962.66;5031247;28;20566;-81
2021/11/24 05:16:56;;;;;;;3.95;2.42;;;;;;;25.33;18.79;98967.13;5028320;28;20034;-81
2021/11/24 05:19:23;;;;;;;2.75;1.90;;;;;;;25.40;18.70;98954.97;5026280;28;20116;-81
2021/11/24 05:21:51;;;;;;;3.75;2.03;;;;;;;25.71;18.16;98958.59;5029036;28;20056;-81
2021/11/24 05:24:19;;;;;;;2.60;2.10;;;;;;;25.95;18.18;98949.75;5023524;28;20029;-81
2021/11/24 05:26:46;;;;;;;4.18;2.35;;;;;;;26.07;17.95;98952.00;5026680;28;20097;-81
2021/11/24 05:29:13;;;;;;;3.05;2.35;;;;;;;26.23;18.05;98959.03;5030589;28;20053;-81
2021/11/24 05:31:39;;;;;;;3.03;2.10;;;;;;;26.40;17.77;98955.88;5023979;28;20059;-81
2021/11/24 05:34:06;;;;;;;2.03;1.70;;;;;;;26.49;17.56;98958.94;5024293;28;20040;-81
2021/11/24 05:36:34;;;;;;;2.97;2.35;;;;;;;26.56;17.50;98958.00;5022809;28;20029;-81
2021/11/24 05:39:05;;;;;;;3.20;1.98;;;;;;;26.61;17.27;98960.34;5027785;28;20370;-79
2021/11/24 05:41:32;;;;;;;2.88;1.92;;;;;;;26.55;17.41;98950.81;5022957;28;20436;-80
2021/11/24 05:44:15;;;;;;;3.85;2.50;;;;;;;26.52;17.10;98946.81;5027298;28;20033;-79
2021/11/24 05:46:56;;;;;;;3.58;2.60;;;;;;;26.24;17.17;98947.31;5025143;28;20398;-80
2021/11/24 05:49:25;;;;;;;3.80;2.25;;;;;;;26.00;17.55;98946.47;5021992;28;20516;-80
2021/11/24 05:51:53;;;;;;;3.17;2.15;;;;;;;25.88;17.63;98949.09;5033105;28;20061;-80
2021/11/24 05:54:20;;;;;;;3.22;2.50;;;;;;;25.72;17.81;98948.94;5021825;28;20029;-81
2021/11/24 05:56:46;;;;;;;2.38;1.80;;;;;;;25.83;17.66;98961.63;5028002;28;20033;-81
2021/11/24 05:59:14;;;;;;;3.13;2.38;;;;;;;26.04;17.75;98950.00;5030835;28;20091;-80
2021/11/24 06:01:40;;;;;;;2.40;1.95;;;;;;;26.12;17.66;98955.56;5032648;28;20489;-80
2021/11/24 06:04:07;;;;;;;3.60;2.08;;;;;;;26.29;17.54;98958.09;5029086;28;20037;-80
2021/11/24 06:06:34;;;;;;;4.15;1.75;;;;;;;26.49;17.36;98958.94;5030360;28;20033;-80
2021/11/24 06:09:01;;;;;;;2.63;1.85;;;;;;;26.56;17.28;98956.00;5033991;28;20065;-80
2021/11/24 06:11:27;;;;;;;2.55;1.85;;;;;;;26.56;17.25;98961.63;5033667;28;20029;-79
2021/11/24 06:13:53;;;;;;;3.97;1.73;;;;;;;26.19;17.64;98966.72;5032252;28;20052;-80
2021/11/24 06:16:20;;;;;;;1.73;1.40;;;;;;;26.01;17.89;98959.34;5031067;28;20098;-80
2021/11/24 06:18:48;;;;;;;4.00;2.63;;;;;;;26.03;17.64;98967.34;5032341;28;20037;-80
2021/11/24 06:21:20;;;;;;;2.35;2.15;;;;;;;25.98;17.89;98974.25;5030188;28;20409;-81
2021/11/24 06:23:48;;;;;;;4.55;2.65;;;;;;;26.15;17.59;98965.97;5026215;28;20042;-81
2021/11/24 06:26:15;;;;;;;3.25;2.30;;;;;;;26.34;17.54;98970.88;5027976;28;20100;-81
2021/11/24 06:28:43;;;;;;;2.42;2.10;;;;;;;26.29;17.42;98975.00;5035804;28;20070;-81
2021/11/24 06:31:10;;;;;;;3.25;1.70;;;;;;;26.32;17.66;98978.97;5035503;28;20116;-81
2021/11/24 06:33:37;;;;;;;2.95;1.73;;;;;;;26.13;17.78;98974.84;5033674;28;20026;-81
2021/11/24 06:36:03;;;;;;;3.13;2.42;;;;;;;26.01;18.05;98975.41;5024178;28;20068;-81
2021/11/24 06:38:30;;;;;;;2.05;1.60;;;;;;;25.69;18.24;98981.53;5034755;28;20038;-81
2021/11/24 06:40:56;;;;;;;3.78;2.15;;;;;;;25.68;18.25;98981.94;5018509;28;20513;-81
2021/11/24 06:43:22;;;;;;;2.45;1.90;;;;;;;25.58;18.39;98980.88;5025818;28;20482;-81
2021/11/24 06:45:49;;;;;;;2.60;2.05;;;;;;;25.56;18.57;98988.94;5034917;28;20456;-81
2021/11/24 06:48:15;;;;;;;2.72;2.08;;;;;;;25.68;18.62;98990.38;5034874;28;20038;-81
2021/11/24 06:50:42;;;;;;;3.50;2.17;;;;;;;25.93;18.34;98985.19;5033786;28;20053;-81
2021/11/24 06:53:08;;;;;;;2.80;2.00;;;;;;;25.82;18.36;98987.34;5035508;28;20513;-81
2021/11/24 06:55:34;;;;;;;4.10;2.53;;;;;;;25.75;18.34;98993.88;5033980;28;20055;-81
2021/11/24 06:58:01;;;;;;;2.75;1.83;;;;;;;25.71;18.46;98993.16;5035120;28;20486;-81
2021/11/24 07:00:27;;;;;;;3.13;2.20;;;;;;;25.47;18.96;98993.47;5030791;28;20139;-81
2021/11/24 07:02:54;;;;;;;3.28;2.50;;;;;;;25.35;19.00;98986.38;5021120;28;20397;-81
2021/11/24 07:05:20;;;;;;;3.90;2.65;;;;;;;25.39;19.08;98995.56;5020248;28;20021;-81
2021/11/24 07:07:46;;;;;;;3.38;1.92;;;;;;;25.50;18.96;98995.44;5035003;28;20076;-81
2021/11/24 07:10:12;;;;;;;3.72;2.17;;;;;;;25.74;18.78;98991.50;5034686;28;20098;-81
2021/11/24 07:12:38;;;;;;;1.92;1.83;;;;;;;26.01;18.23;98995.13;5033995;28;20033;-81
2021/11/24 07:15:06;;;;;;;4.38;2.70;;;;;;;26.33;18.17;98995.44;5028301;28;20111;-81
2021/11/24 07:17:32;;;;;;;2.85;2.30;;;;;;;26.67;17.80;98989.63;5034636;28;20060;-81
2021/11/24 07:20:01;;;;;;;4.25;2.58;;;;;;;26.89;17.67;98990.84;5034580;28;20478;-81
2021/11/24 07:22:27;;;;;;;7.38;3.92;;;;;;;26.92;17.33;98987.16;5034618;28;20053;-81
2021/11/24 07:24:53;;;;;;;11.48;4.65;;;;;;;27.10;17.71;98984.78;5034693;28;20033;-81
2021/11/24 07:27:19;;;;;;;8.45;3.63;;;;;;;27.25;17.56;98986.09;5034026;28;20029;-81
2021/11/24 07:29:45;;;;;;;7.63;3.58;;;;;;;27.40;17.43;98995.06;5034321;28;20103;-81
2021/11/24 07:32:12;;;;;;;6.30;3.67;;;;;;;27.38;17.15;98994.72;5034449;28;20036;-81
2021/11/24 07:34:38;;;;;;;6.13;3.60;;;;;;;27.11;17.76;98991.22;5033183;28;20496;-81
2021/11/24 07:37:04;;;;;;;6.93;4.45;;;;;;;26.31;18.55;98995.06;5033707;28;20036;-81
2021/11/24 07:39:32;;;;;;;7.63;4.47;;;;;;;26.50;18.49;98993.53;5034619;28;20033;-81
2021/11/24 07:41:59;;;;;;;8.55;4.75;;;;;;;26.95;17.81;98988.31;5033670;28;20022;-81
2021/11/24 07:44:26;;;;;;;8.52;5.28;;;;;;;27.22;17.57;98981.31;5034306;28;20535;-81
2021/11/24 07:46:52;;;;;;;6.40;4.28;;;;;;;27.36;17.14;98980.22;5033522;28;20025;-81
2021/11/24 07:49:18;;;;;;;5.68;3.70;;;;;;;27.49;17.02;98967.09;5034417;28;20068;-81
2021/11/24 07:51:44;;;;;;;5.55;3.85;;;;;;;27.43;17.28;98974.47;5034473;28;20038;-81
2021/11/24 07:54:12;;;;;;;5.53;3.42;;;;;;;27.53;17.60;98969.84;5031714;28;20456;-81
2021/11/24 07:56:39;;;;;;;3.65;3.13;;;;;;;27.54;17.63;98968.63;5027086;28;20462;-81
2021/11/24 07:59:05;;;;;;;4.72;3.15;;;;;;;27.57;17.24;98968.53;5017934;28;20049;-81
2021/11/24 08:01:31;;;;;;;4.05;3.40;;;;;;;27.74;17.29;98975.81;5013926;28;20026;-81
2021/11/24 08:03:58;;;;;;;3.25;2.72;;;;;;;27.35;17.56;98973.78;5026222;28;20051;-81
2021/11/24 08:06:24;;;;;;;3.80;2.85;;;;;;;27.48;17.89;98978.81;5029188;28;20029;-81
2021/11/24 08:08:50;;;;;;;4.57;3.33;;;;;;;27.65;17.19;98975.59;5031511;28;20080;-81
2021/11/24 08:11:16;;;;;;;3.22;2.67;;;;;;;27.75;17.46;98976.59;5034099;28;20522;-81
2021/11/24 08:13:42;;;;;;;3.33;2.47;;;;;;;27.76;17.11;98986.66;5019494;28;20371;-81
2021/11/24 08:16:08;;;;;;;4.47;2.95;;;;;;;27.71;17.34;98985.13;5013810;28;20394;-81
2021/11/24 08:18:34;;;;;;;3.85;2.72;;;;;;;27.73;17.38;98976.22;5027160;28;20456;-81
2021/11/24 08:21:01;;;;;;;4.35;2.95;;;;;;;27.82;16.95;98977.22;5033439;28;20123;-81
2021/11/24 08:23:27;;;;;;;6.88;3.80;;;;;;;27.93;17.21;98971.34;5033590;28;20029;-81
2021/11/24 08:25:53;;;;;;;5.93;4.50;;;;;;;28.05;17.16;98973.50;5033463;28;20026;-81
2021/11/24 08:28:20;;;;;;;3.72;2.17;;;;;;;27.89;17.08;98977.06;5033355;28;20111;-81
2021/11/24 08:30:46;;;;;;;3.13;2.47;;;;;;;27.80;17.06;98976.06;5033287;28;20053;-81
2021/11/24 08:33:12;;;;;;;4.25;2.97;;;;;;;27.76;16.90;98976.16;5032754;28;20022;-81
2021/11/24 08:35:38;;;;;;;3.85;3.30;;;;;;;27.69;17.58;98970.66;5014301;28;20121;-81
2021/11/24 08:38:05;;;;;;;5.18;2.88;;;;;;;27.83;17.55;98969.53;5026246;28;20033;-81
2021/11/24 08:40:31;;;;;;;4.70;2.28;;;;;;;27.61;17.07;98969.22;5033391;28;20037;-81
2021/11/24 08:42:58;;;;;;;3.88;2.20;;;;;;;27.40;17.50;98972.50;5033270;28;20108;-81
2021/11/24 08:45:24;;;;;;;3.10;2.05;;;;;;;27.36;17.57;98983.03;5033337;28;20037;-81
2021/11/24 08:47:51;;;;;;;4.10;2.78;;;;;;;27.55;17.50;98970.97;5033167;28;20037;-81
2021/11/24 08:50:19;;;;;;;3.65;2.75;;;;;;;27.67;17.70;98967.50;5033227;28;20444;-81
2021/11/24 08:52:46;;;;;;;5.60;2.70;;;;;;;27.67;17.77;98978.78;5033501;28;20033;-81
2021/11/24 08:55:13;;;;;;;5.35;2.90;;;;;;;27.89;17.87;98977.06;5032782;28;20489;-81
2021/11/24 08:57:39;;;;;;;6.13;2.42;;;;;;;27.91;17.45;98973.81;5033009;28;20044;-81
2021/11/24 09:00:09;;;;;;;4.05;2.47;;;;;;;27.89;17.29;98977.06;5032794;28;20030;-81
2021/11/24 09:02:35;;;;;;;4.95;2.75;;;;;;;27.99;17.18;98970.41;5033049;28;20074;-82
2021/11/24 09:05:04;;;;;;;5.43;2.70;;;;;;;28.19;16.98;98978.00;5025606;28;20030;-81
2021/11/24 09:07:30;;;;;;;4.30;2.00;;;;;;;28.31;17.06;98968.84;5017033;28;20053;-81
2021/11/24 09:09:56;;;;;;;2.75;1.98;;;;;;;28.30;17.13;98970.84;5033231;28;20037;-81
2021/11/24 09:12:23;;;;;;;4.45;2.70;;;;;;;28.43;17.15;98968.09;5032633;28;20392;-81
2021/11/24 09:14:49;;;;;;;2.75;2.42;;;;;;;28.52;17.02;98969.06;5032537;28;20490;-81
2021/11/24 09:17:15;;;;;;;3.58;2.13;;;;;;;28.58;16.67;98972.16;5032554;28;20424;-81
2021/11/24 09:19:41;;;;;;;4.28;2.03;;;;;;;28.26;16.19;98967.34;5034747;28;20497;-82
2021/11/24 09:22:07;;;;;;;3.25;1.60;;;;;;;28.23;17.24;98964.59;5036839;28;20120;-81
2021/11/24 09:24:34;;;;;;;3.30;1.80;;;;;;;28.13;16.94;98971.28;5033526;28;20041;-81
2021/11/24 09:27:11;;;;;;;2.42;1.92;;;;;;;28.27;17.07;98959.63;5017420;28;20121;-81
2021/11/24 09:29:37;;;;;;;2.65;1.55;;;;;;;28.11;15.86;98968.91;5034139;28;20048;-81
2021/11/24 09:32:04;;;;;;;1.67;1.25;;;;;;;28.05;16.31;98959.38;5036682;28;20038;-81
2021/11/24 09:34:31;;;;;;;1.77;1.23;;;;;;;27.87;16.26;98959.75;5025140;28;20030;-81
2021/11/24 09:36:57;;;;;;;1.40;1.10;;;;;;;27.77;16.20;98955.16;5016851;28;20434;-81
2021/11/24 09:39:24;;;;;;;2.42;1.23;;;;;;;27.87;16.58;98956.94;5018188;28;20053;-81
2021/11/24 09:41:53;;;;;;;1.75;1.15;;;;;;;27.97;16.20;98958.72;5016813;28;20030;-81
2021/11/24 09:44:19;;;;;;;2.92;1.30;;;;;;;27.80;16.46;98951.47;5016563;28;20402;-81
2021/11/24 09:46:48;;;;;;;1.80;1.02;;;;;;;27.95;16.31;98949.91;5035131;28;20127;-81
2021/11/24 09:49:18;;;;;;;1.15;1.02;;;;;;;27.28;16.50;98951.38;5035857;28;20037;-81
2021/11/24 09:51:45;;;;;;;1.65;1.05;;;;;;;27.49;16.52;98955.00;5016573;28;20038;-81
2021/11/24 09:54:13;;;;;;;1.88;1.20;;;;;;;27.58;16.39;98958.03;5017196;28;20026;-81
2021/11/24 09:56:41;;;;;;;2.75;1.20;;;;;;;27.22;16.12;98944.66;5016802;28;20113;-81
2021/11/24 09:59:11;;;;;;;2.05;1.05;;;;;;;27.62;16.30;98945.44;5024015;28;20045;-81
2021/11/24 10:01:38;;;;;;;2.13;1.33;;;;;;;27.68;15.99;98940.06;5022458;28;20034;-81
2021/11/24 10:04:09;;;;;;;2.83;1.30;;;;;;;27.63;16.46;98944.22;5036446;28;20033;-81
2021/11/24 10:06:40;;;;;;;2.35;1.33;;;;;;;27.20;16.53;98941.50;5036171;28;20485;-81
2021/11/24 10:09:11;;;;;;;2.72;1.10;;;;;;;27.49;16.35;98941.72;5019744;28;20073;-81
2021/11/24 10:11:38;;;;;;;2.05;1.17;;;;;;;27.69;16.34;98941.66;5016144;28;20441;-81
2021/11/24 10:14:04;;;;;;;2.03;1.00;;;;;;;27.89;16.32;98939.59;5016033;28;20394;-81
2021/11/24 10:16:33;;;;;;;2.15;1.20;;;;;;;27.54;15.22;98935.53;5020842;28;20029;-81
2021/11/24 10:19:05;;;;;;;1.75;0.98;;;;;;;27.67;16.30;98944.91;5031819;28;20092;-81
2021/11/24 10:21:33;;;;;;;1.42;0.90;;;;;;;27.67;16.00;98939.28;5025868;28;20052;-81
2021/11/24 10:24:03;;;;;;;2.40;0.90;;;;;;;27.36;16.23;98935.91;5035498;28;20037;-81
2021/11/24 10:26:34;;;;;;;1.05;0.88;;;;;;;27.16;16.07;98939.97;5034631;28;20030;-81
2021/11/24 10:29:09;;;;;;;3.15;1.33;;;;;;;27.00;16.17;98939.91;5035947;28;20040;-81
2021/11/24 10:31:40;;;;;;;2.70;1.20;;;;;;;27.24;16.39;98941.41;5034227;28;20038;-81
2021/11/24 10:34:18;;;;;;;3.05;1.05;;;;;;;27.42;16.12;98927.75;5035168;28;20052;-81
2021/11/24 10:37:01;;;;;;;2.70;1.30;;;;;;;27.31;16.05;98924.34;5033111;28;20099;-81
2021/11/24 10:39:29;;;;;;;2.05;1.23;;;;;;;27.49;15.48;98921.16;5035280;28;20569;-81
2021/11/24 10:42:04;;;;;;;2.15;1.15;;;;;;;27.71;15.77;98922.25;5034386;28;20079;-81
2021/11/24 10:44:31;;;;;;;3.22;1.77;;;;;;;27.79;15.48;98918.03;5035984;28;20476;-81
2021/11/24 10:46:59;;;;;;;1.17;0.70;;;;;;;27.68;15.47;98912.63;5035327;28;20033;-81
2021/11/24 10:49:41;;;;;;;1.60;0.90;;;;;;;27.37;15.29;98906.50;5016219;28;20037;-81
2021/11/24 10:52:27;;;;;;;1.10;0.80;;;;;;;27.27;15.90;98910.31;5027646;28;20041;-81
2021/11/24 10:55:11;;;;;;;0.60;0.60;;;;;;;27.38;16.09;98904.47;5035116;28;20064;-81
2021/11/24 10:57:45;;;;;;;1.45;0.70;;;;;;;27.27;16.00;98901.06;5034970;28;20108;-81
2021/11/24 11:00:22;;;;;;;1.88;1.13;;;;;;;27.19;15.71;98897.59;5035484;28;20034;-81
2021/11/24 11:02:49;;;;;;;1.48;1.08;;;;;;;27.23;15.54;98901.16;5035047;28;20037;-81
2021/11/24 11:05:23;;;;;;;1.23;0.90;;;;;;;27.33;16.31;98896.47;5035098;28;20033;-81
2021/11/24 11:07:50;;;;;;;0.90;0.60;;;;;;;27.38;15.86;98893.97;5030264;28;20076;-81
2021/11/24 11:10:31;;;;;;;1.50;0.75;;;;;;;27.44;15.76;98885.00;5025502;28;20044;-81
2021/11/24 11:12:59;;;;;;;;;;;;;;;27.69;15.25;98882.41;5034934;28;20033;-81
2021/11/24 11:15:54;;;;;;;1.23;0.80;;;;;;;27.61;15.21;98876.13;5034704;28;19920;-81
2021/11/24 11:18:29;;;;;;;2.47;0.70;;;;;;;27.32;16.06;98878.00;5034372;28;20052;-81
2021/11/24 11:21:03;;;;;;;0.52;0.50;;;;;;;27.46;15.65;98877.69;5033674;28;20042;-81
2021/11/24 11:23:43;;;;;;;0.70;0.50;;;;;;;27.76;15.48;98874.56;5034694;28;20038;-81
2021/11/24 11:26:11;;;;;;;0.80;0.50;;;;;;;27.87;15.58;98871.47;5034405;28;20134;-81
2021/11/24 11:28:42;;;;;;;0.65;0.50;;;;;;;27.85;15.69;98869.09;5034534;28;20033;-80
2021/11/24 11:31:13;;;;;;;0.65;0.60;;;;;;;27.63;15.41;98856.75;5032749;28;20386;-81
2021/11/24 11:33:46;;;;;;;0.45;0.45;;;;;;;27.55;15.46;98865.81;5034395;28;20124;-81
2021/11/24 11:36:13;;;;;;;0.80;0.60;;;;;;;27.25;15.55;98849.94;5032546;28;20034;-80